• Join FlightAware (Why Join?)
  • Login
  • US Flag 
04:54AM EDT


 

Airport Tracker/Info


-or-


 

Live Flight TrackerFlight Track Log ✈ RPA3436 ✈ 04-Jul-2013 ✈ KDCA - KALB

Flight Track Log - Related Links

Times and Time Zones

All times are in EDT time to prevent confusion due to time zone crossing. See the RPA3436 flight status page for this flight to view local times or setup timezone preferences in your user account.

Time Position Orientation Groundspeed Altitude Reporting Facility
EDT Latitude Longitude Course Direction KTS MPH feet Rate Location/Type
10:15AM 38.8333 -77.0333 57° Northeast 152 175 1,200  Level Potomac TRACON
10:17AM 38.7358 -77.0314 179° South 199 229 3,900 2,400 Climbing Washington Center
10:18AM 39.0061 -76.5878 57° Northeast  Level FlightAware Approximate
10:18AM 38.7222 -76.9461 102° East 184 212 7,400  Level Washington Center
10:19AM 39.0497 -76.4759 63° Northeast  Level FlightAware Approximate
10:19AM 38.7775 -76.8644 49° Northeast 202 232 10,600  Level Washington Center
10:20AM 39.0958 -76.3654 61° Northeast  Level FlightAware Approximate
10:20AM 38.8306 -76.7722 54° Northeast 276 318 13,300  Level Washington Center
10:21AM 39.1250 -76.2500 57° Northeast  Level FlightAware Approximate
10:21AM 38.8856 -76.6744 54° Northeast 290 334 15,300  Level Washington Center
10:22AM 38.9303 -76.5575 64° Northeast 327 376 17,400 1,980 Climbing Washington Center
10:23AM 38.9769 -76.4381 63° Northeast 354 407 19,300 1,860 Climbing Washington Center
10:24AM 39.0258 -76.3131 63° Northeast 373 429 21,200 1,860 Climbing Washington Center
10:25AM 39.0744 -76.1797 65° Northeast 385 443 23,100 1,680 Climbing Washington Center
10:26AM 39.1292 -76.0492 62° Northeast 402 463 24,700 1,500 Climbing Washington Center
10:27AM 39.1817 -75.9128 64° Northeast 407 468 26,200 1,440 Climbing Washington Center
10:28AM 39.2611 -75.7981 48° Northeast 420 483 27,600 1,320 Climbing Washington Center
10:29AM 39.3467 -75.6828 46° Northeast 425 489 28,900 660 Climbing Washington Center
10:30AM 39.4322 -75.5756 44° Northeast 430 495 29,000  Climbing Washington Center
10:31AM 39.5133 -75.4678 46° Northeast 419 482 29,000  Level Washington Center
10:32AM 39.5925 -75.3625 46° Northeast 414 476 29,000  Level Washington Center
10:33AM 39.6736 -75.2544 46° Northeast 409 471 29,000  Level Washington Center
10:33AM 39.7069 -75.2097 46° Northeast 418 481 29,000  Level New York Center
10:34AM 39.7842 -75.0931 49° Northeast 423 487 29,000  Level New York Center
10:35AM 39.8653 -74.9819 46° Northeast 423 487 29,000  Level New York Center
10:36AM 39.9503 -74.8758 44° Northeast 423 487 29,000  Level New York Center
10:37AM 40.0436 -74.7703 41° Northeast 408 470 29,000  Level New York Center
10:38AM 40.1219 -74.6769 42° Northeast 408 470 29,000  Level New York Center
10:39AM 40.2172 -74.5628 42° Northeast 408 470 29,000  Level New York Center
10:40AM 40.3061 -74.4561 42° Northeast 413 475 29,000  Level New York Center
10:41AM 40.3928 -74.3517 43° Northeast 413 475 29,000  Level New York Center
10:43AM 40.5281 -74.1847 43° Northeast 412 474 29,000 -540 Level Boston Center
10:44AM 40.6319 -74.0589 43° Northeast 417 480 27,600 -1,980 Descending Boston Center
10:45AM 40.7378 -73.9439 39° Northeast 428 493 25,100 -1,680 Descending Boston Center
10:46AM 40.8203 -73.8389 44° Northeast 423 487 24,000 -600 Descending Boston Center
10:47AM 40.9217 -73.7228 41° Northeast 413 475 23,800 -540 Descending Boston Center
10:48AM 41.0267 -73.6617 24° Northeast 405 466 23,000 -420 Descending Boston Center
10:49AM 41.1336 -73.6031 22° Northeast 405 466 23,000 -960 Level Boston Center
10:50AM 41.2403 -73.5469 22° Northeast 405 466 21,100 -2,100 Descending Boston Center
10:51AM 41.3447 -73.5350 North 397 457 18,900 -1,560 Descending Boston Center
10:52AM 41.4364 -73.5367 359° North 368 423 18,000 -720 Descending Boston Center
10:53AM 41.5469 -73.5331 North 362 417 17,500 -540 Descending Boston Center
10:54AM 41.6364 -73.5317 North 362 417 17,000 -900 Descending Boston Center
10:55AM 41.7428 -73.5308 360° North 356 410 15,700 -1,560 Descending Boston Center
10:56AM 41.8303 -73.5322 359° North 349 402 13,900 -1,920 Descending Boston Center
10:57AM 41.9325 -73.5283 North 343 395 11,900 -1,560 Descending Boston Center
10:58AM 42.0158 -73.5272 North 321 369 11,000 -540 Descending Boston Center
10:59AM 42.1117 -73.5231 North 322 371 10,900 -60 Descending Boston Center
11:00AM 42.1969 -73.5386 352° North 316 364 10,900 -540 Level Boston Center
11:01AM 42.2761 -73.5569 350° North 319 367 9,900 -1,440 Descending Boston Center
11:02AM 42.3489 -73.5722 351° North 294 338 8,300 -1,860 Descending Boston Center
11:03AM 42.4342 -73.5906 351° North 285 328 6,400 -1,620 Descending Boston Center
11:04AM 42.5172 -73.6119 349° North 281 323 4,900 -1,020 Descending Boston Center
11:05AM 42.5714 -73.6325 344° North 238 274 4,500 -600 Descending Boston Center
11:06AM 42.6400 -73.6508 349° North 232 267 3,700 -720 Descending Boston Center
11:07AM 42.7042 -73.6692 348° North 222 255 3,000 -360 Descending Boston Center
11:08AM 42.7686 -73.6875 348° North 222 255 3,000  Level Boston Center
11:09AM 42.8269 -73.7056 347° North 216 249 3,000 -540 Level Boston Center
11:10AM 42.8789 -73.7236 346° North 205 236 2,000 -1,020 Descending Boston Center